»·PEaware :: FDX4214 KSAN-KSEA

FDX4214 :: KSAN-KSEA

FLIGHT INFORMATION

Flight Status: Arrived
Operator:
Federal Express
More flights by this operator :: More flights under this callsign
Pilot: Anonymous 12254 (12254)
Aircraft: BOEING 767-300
(B763)
More flights by this aircraft type
Origin: KSAN San Diego Intl-Lindbergh
United States
Destination: KSEA Seattle-Tacoma Intl
United States
More flights between these airports :: More routes between these airports
Route: PADRZ2 IKAYE TESEA SCTRR SNS RBL LMT HAWKZ7
File this flight plan on PilotEdge
Remarks:
Altitude:
(Current/Filed)
32,000ft
Speed:
(Current/Filed)
450kts
Departed: 15-Mar-20 11:33 AM
Arrived: 15-Mar-20 02:07 PM
Distance/Time
Traveled:
914nm/2:33
Distance/Time
To Go:
Arrived

Flight Plot

Page will automatically refresh every two minutes.

Flight plan parsing failed; only flown route is shown


Map Options




Map Legend


Flown Route
Filed Route
Departure Airport
Arrival Airport
Navaid (VOR, NDB)
Fix

Horizontal Profiles

Position Reports

Time Latitude Longitude Heading Altitude Ground
Speed
15-Mar-20 11:13 32.736347 -117.185499 144 24ft 0kts
15-Mar-20 11:14 32.736347 -117.185499 144 24ft 0kts
15-Mar-20 11:15 32.736347 -117.185499 144 24ft 0kts
15-Mar-20 11:16 32.736347 -117.185499 144 24ft 0kts
15-Mar-20 11:17 32.736347 -117.185499 144 24ft 0kts
15-Mar-20 11:18 32.736347 -117.185499 144 24ft 0kts
15-Mar-20 11:19 32.736347 -117.185499 144 24ft 0kts
15-Mar-20 11:20 32.736347 -117.185499 144 24ft 0kts
15-Mar-20 11:21 32.736347 -117.185499 144 24ft 0kts
15-Mar-20 11:22 32.736347 -117.185499 144 24ft 0kts
15-Mar-20 11:23 32.736347 -117.185499 144 24ft 0kts
15-Mar-20 11:24 32.736347 -117.185499 144 24ft 0kts
15-Mar-20 11:25 32.736347 -117.185499 144 24ft 0kts
15-Mar-20 11:26 32.736347 -117.185499 144 24ft 0kts
15-Mar-20 11:27 32.734734 -117.184138 144 24ft 9kts
15-Mar-20 11:28 32.734192 -117.183893 185 24ft 3kts
15-Mar-20 11:29 32.732414 -117.180245 105 25ft 24kts
15-Mar-20 11:30 32.731184 -117.175696 140 29ft 0kts
15-Mar-20 11:31 32.731180 -117.175691 140 29ft 0kts
15-Mar-20 11:32 32.733785 -117.190907 284 33ft 174kts
15-Mar-20 11:33 32.762044 -117.260122 310 1793ft 260kts
15-Mar-20 11:34 32.806066 -117.328995 306 3669ft 264kts
15-Mar-20 11:35 32.851951 -117.399591 305 5689ft 271kts
15-Mar-20 11:36 32.898739 -117.472212 304 7847ft 279kts
15-Mar-20 11:37 32.946669 -117.546798 304 9990ft 287kts
15-Mar-20 11:38 32.995303 -117.622649 303 12078ft 288kts
15-Mar-20 11:39 33.044493 -117.699541 302 14163ft 295kts
15-Mar-20 11:40 33.103801 -117.770148 313 16310ft 310kts
15-Mar-20 11:41 33.170332 -117.837946 313 18469ft 318kts
15-Mar-20 11:42 33.235341 -117.910786 308 20718ft 325kts
15-Mar-20 11:43 33.299895 -117.988293 308 22973ft 333kts
15-Mar-20 11:44 33.365619 -118.066901 308 25237ft 335kts
15-Mar-20 11:46 33.431503 -118.145874 308 27170ft 339kts
15-Mar-20 11:47 33.498769 -118.226666 308 28911ft 343kts
15-Mar-20 11:48 33.566517 -118.308222 308 30572ft 344kts
15-Mar-20 11:49 33.634137 -118.389832 308 31986ft 346kts
15-Mar-20 11:50 33.705719 -118.476529 309 32132ft 385kts
15-Mar-20 11:51 33.784404 -118.571917 309 32992ft 408kts
15-Mar-20 11:52 33.864915 -118.669755 308 32277ft 405kts
15-Mar-20 11:53 33.944315 -118.766651 308 32453ft 413kts
15-Mar-20 11:54 34.023858 -118.863905 308 31779ft 404kts
15-Mar-20 11:55 34.100901 -118.958418 307 31714ft 397kts
15-Mar-20 11:56 34.171210 -119.043711 307 31846ft 376kts
15-Mar-20 11:57 34.246010 -119.132903 307 31699ft 376kts
15-Mar-20 11:58 34.319608 -119.220846 308 31551ft 375kts
15-Mar-20 11:59 34.393374 -119.309222 308 31715ft 375kts
15-Mar-20 12:00 34.467216 -119.397913 307 31941ft 377kts
15-Mar-20 12:01 34.541453 -119.487344 308 32307ft 382kts
15-Mar-20 12:02 34.616761 -119.578240 308 32125ft 378kts
15-Mar-20 12:03 34.691438 -119.668661 307 31894ft 375kts
15-Mar-20 12:04 34.765231 -119.758250 307 31758ft 375kts
15-Mar-20 12:05 34.839417 -119.848554 307 31558ft 373kts
15-Mar-20 12:05 34.900725 -119.923375 307 31649ft 374kts
15-Mar-20 12:07 34.987734 -120.029851 306 31869ft 382kts
15-Mar-20 12:08 35.063595 -120.122958 306 31909ft 386kts
15-Mar-20 12:08 35.123885 -120.197128 306 31849ft 385kts
15-Mar-20 12:09 35.199025 -120.280895 314 31706ft 394kts
15-Mar-20 12:10 35.285760 -120.360405 314 31560ft 393kts
15-Mar-20 12:12 35.385655 -120.452053 314 31406ft 391kts
15-Mar-20 12:12 35.457078 -120.517762 314 31321ft 392kts
15-Mar-20 12:13 35.543098 -120.596483 315 31148ft 394kts
15-Mar-20 12:14 35.627182 -120.670698 315 31135ft 393kts
15-Mar-20 12:15 35.711725 -120.745596 315 31252ft 394kts
15-Mar-20 12:16 35.800656 -120.824582 315 31306ft 393kts
15-Mar-20 12:17 35.889056 -120.903333 315 31460ft 394kts
15-Mar-20 12:18 35.977741 -120.982555 315 31599ft 394kts
15-Mar-20 12:19 36.067398 -121.062887 314 31873ft 393kts
15-Mar-20 12:20 36.150889 -121.137891 314 32111ft 392kts
15-Mar-20 12:21 36.238201 -121.216535 314 32230ft 391kts
15-Mar-20 12:22 36.325275 -121.295201 314 32235ft 391kts
15-Mar-20 12:23 36.412096 -121.373854 314 32170ft 390kts
15-Mar-20 12:24 36.499007 -121.452817 314 32098ft 390kts
15-Mar-20 12:25 36.586026 -121.532103 314 32020ft 390kts
15-Mar-20 12:26 36.678259 -121.603542 333 31884ft 412kts
15-Mar-20 12:27 36.787992 -121.625130 342 31783ft 423kts
15-Mar-20 12:28 36.902326 -121.645253 342 31789ft 423kts
15-Mar-20 12:29 37.016071 -121.665429 342 31858ft 428kts
15-Mar-20 12:30 37.128405 -121.685408 344 31942ft 439kts
15-Mar-20 12:31 37.245607 -121.706243 344 31931ft 438kts
15-Mar-20 12:32 37.361097 -121.726896 344 32030ft 438kts
15-Mar-20 12:33 37.475156 -121.747348 344 32159ft 439kts
15-Mar-20 12:34 37.592035 -121.768384 344 32303ft 441kts
15-Mar-20 12:35 37.709447 -121.789580 344 32473ft 442kts
15-Mar-20 12:36 37.825961 -121.810681 344 32659ft 444kts
15-Mar-20 12:37 37.943192 -121.831959 344 32605ft 443kts
15-Mar-20 12:38 38.060130 -121.853274 344 32417ft 441kts
15-Mar-20 12:39 38.167965 -121.872977 344 32198ft 439kts
15-Mar-20 12:40 38.280210 -121.893567 344 31925ft 439kts
15-Mar-20 12:41 38.402488 -121.916060 344 31615ft 437kts
15-Mar-20 12:42 38.522729 -121.938247 344 31543ft 436kts
15-Mar-20 12:43 38.639692 -121.959913 344 31545ft 436kts
15-Mar-20 12:44 38.759422 -121.982167 344 31452ft 436kts
15-Mar-20 12:45 38.878395 -122.004347 344 31334ft 435kts
15-Mar-20 12:46 38.997646 -122.026677 344 31212ft 440kts
15-Mar-20 12:47 39.114567 -122.048612 345 31097ft 443kts
15-Mar-20 12:48 39.226683 -122.069711 344 31150ft 443kts
15-Mar-20 12:49 39.349839 -122.092990 345 31310ft 443kts
15-Mar-20 12:50 39.466685 -122.115139 345 31439ft 443kts
15-Mar-20 12:51 39.586842 -122.138014 345 31511ft 445kts
15-Mar-20 12:52 39.707236 -122.161005 345 31607ft 445kts
15-Mar-20 12:53 39.828870 -122.184303 344 31710ft 444kts
15-Mar-20 12:54 39.950329 -122.207656 345 31752ft 444kts
15-Mar-20 12:55 40.071210 -122.230840 347 31785ft 446kts
15-Mar-20 12:56 40.177851 -122.217201 5 31727ft 459kts
15-Mar-20 12:57 40.294234 -122.189332 5 31866ft 461kts
15-Mar-20 12:58 40.419634 -122.159007 5 32120ft 462kts
15-Mar-20 12:59 40.549426 -122.127504 5 32234ft 464kts
15-Mar-20 13:00 40.674638 -122.096979 5 32150ft 463kts
15-Mar-20 13:01 40.799996 -122.066308 5 31935ft 461kts
15-Mar-20 13:02 40.921015 -122.036585 5 31698ft 460kts
15-Mar-20 13:03 41.045224 -122.005991 7 31465ft 453kts
15-Mar-20 13:04 41.156200 -121.978524 7 31268ft 444kts
15-Mar-20 13:05 41.267411 -121.950906 7 31130ft 445kts
15-Mar-20 13:06 41.389386 -121.920502 8 30755ft 434kts
15-Mar-20 13:07 41.508562 -121.890698 7 30246ft 431kts
15-Mar-20 13:08 41.623424 -121.861860 8 29947ft 425kts
15-Mar-20 13:09 41.739057 -121.832741 8 30441ft 433kts
15-Mar-20 13:10 41.854952 -121.803427 7 30996ft 437kts
15-Mar-20 13:11 41.970951 -121.773984 7 31551ft 442kts
15-Mar-20 13:12 42.088161 -121.744125 7 31632ft 442kts
15-Mar-20 13:13 42.192533 -121.737281 347 31521ft 427kts
15-Mar-20 13:14 42.301168 -121.761155 346 31379ft 427kts
15-Mar-20 13:15 42.410555 -121.785991 346 31329ft 426kts
15-Mar-20 13:16 42.526403 -121.812456 346 31420ft 427kts
15-Mar-20 13:17 42.646988 -121.840114 346 31528ft 427kts
15-Mar-20 13:18 42.764102 -121.867078 346 31757ft 429kts
15-Mar-20 13:19 42.876819 -121.893122 346 31687ft 429kts
15-Mar-20 13:20 42.991694 -121.919819 348 31608ft 429kts
15-Mar-20 13:21 43.107453 -121.946743 349 31554ft 426kts
15-Mar-20 13:22 43.220641 -121.973196 349 31485ft 425kts
15-Mar-20 13:23 43.337333 -122.000573 349 31484ft 424kts
15-Mar-20 13:24 43.453805 -122.028016 349 31470ft 423kts
15-Mar-20 13:25 43.570003 -122.055500 349 31611ft 423kts
15-Mar-20 13:26 43.686474 -122.083154 349 31865ft 425kts
15-Mar-20 13:27 43.803271 -122.110996 349 32029ft 427kts
15-Mar-20 13:28 43.920392 -122.139023 349 32107ft 427kts
15-Mar-20 13:29 44.037853 -122.167252 349 32134ft 427kts
15-Mar-20 13:30 44.154278 -122.195341 349 32128ft 428kts
15-Mar-20 13:31 44.271083 -122.223636 349 31999ft 427kts
15-Mar-20 13:32 44.388077 -122.252091 349 31850ft 427kts
15-Mar-20 13:33 44.504576 -122.280541 349 31732ft 426kts
15-Mar-20 13:34 44.621479 -122.309200 349 31568ft 425kts
15-Mar-20 13:35 44.737789 -122.337836 349 31381ft 423kts
15-Mar-20 13:36 44.853084 -122.366336 349 31338ft 423kts
15-Mar-20 13:37 44.969029 -122.395119 349 31388ft 423kts
15-Mar-20 13:38 45.084612 -122.423968 351 31460ft 417kts
15-Mar-20 13:39 45.196515 -122.451929 352 31377ft 413kts
15-Mar-20 13:40 45.309965 -122.480426 352 31291ft 412kts
15-Mar-20 13:41 45.420207 -122.508237 352 31204ft 411kts
15-Mar-20 13:42 45.531150 -122.536341 352 31290ft 408kts
15-Mar-20 13:43 45.644920 -122.565263 351 32054ft 416kts
15-Mar-20 13:44 45.759088 -122.594341 352 31860ft 420kts
15-Mar-20 13:45 45.872085 -122.622243 352 30082ft 407kts
15-Mar-20 13:46 45.982607 -122.649662 352 28105ft 399kts
15-Mar-20 13:47 46.090802 -122.676585 352 26147ft 392kts
15-Mar-20 13:48 46.196969 -122.697777 354 24175ft 385kts
15-Mar-20 13:49 46.301940 -122.718590 355 22237ft 378kts
15-Mar-20 13:50 46.405103 -122.725306 2 20393ft 368kts
15-Mar-20 13:51 46.506167 -122.728900 2 18565ft 360kts
15-Mar-20 13:52 46.605152 -122.732471 2 16767ft 353kts
15-Mar-20 13:53 46.702583 -122.735998 2 14995ft 347kts
15-Mar-20 13:54 46.795050 -122.722518 36 13171ft 325kts
15-Mar-20 13:55 46.863058 -122.643728 49 12107ft 289kts
15-Mar-20 13:57 46.920447 -122.562135 49 10500ft 289kts
15-Mar-20 13:58 46.975995 -122.478288 46 8925ft 285kts
15-Mar-20 13:59 47.041670 -122.418582 31 6913ft 258kts
15-Mar-20 14:00 47.100010 -122.369159 31 5988ft 227kts
15-Mar-20 14:01 47.158547 -122.341796 22 5991ft 228kts
15-Mar-20 14:02 47.213431 -122.297569 24 5193ft 231kts
15-Mar-20 14:03 47.276108 -122.295479 353 3812ft 230kts
15-Mar-20 14:04 47.334687 -122.309480 357 2321ft 200kts
15-Mar-20 14:05 47.386935 -122.309011 357 1154ft 199kts
15-Mar-20 14:06 47.435121 -122.307995 354 371ft 158kts
15-Mar-20 14:07 47.458920 -122.307880 3 438ft 31kts
15-Mar-20 14:08 47.460102 -122.306747 76 440ft 0kts
15-Mar-20 14:09 47.461835 -122.304975 90 443ft 11kts
15-Mar-20 14:10 47.462165 -122.301519 359 447ft 8kts
15-Mar-20 14:11 47.462658 -122.301531 359 443ft 0kts

Navigation Log

Ident Type
Flight plan parsing failed, navigation log unavailable